Flight Track Log - Related Links

Times and Time Zones

All times are in EDT time to prevent confusion due to time zone crossing. See the UAL3820 flight status page for this flight to view local times or setup timezone preferences in your user account.

Time Position Orientation Groundspeed Altitude Reporting Facility
EDT Latitude Longitude Course Direction KTS MPH feet Rate Location/Type
Sun 10:29:55 PM 41.9833 -87.8333 77° East 177 204 2,900  Level Chicago TRACON
Sun 10:30:55 PM 41.9833 -87.7500 90° East 238 274 4,500 2,105 Climbing Chicago TRACON
Sun 10:32:46 PM 42.0039 -87.5825 81° East 261 300 8,900 2,302 Climbing Chicago Center
Sun 10:33:00 PM 42.0569 -87.3224 78° East  Level FlightAware Approximate
Sun 10:33:47 PM 42.0250 -87.4858 74° East 269 310 11,100  Level Chicago Center
Sun 10:34:00 PM 42.0749 -87.2051 78° East  Level FlightAware Approximate
Sun 10:34:48 PM 42.0453 -87.3881 74° East 274 315 13,000  Level Chicago Center
Sun 10:35:00 PM 42.0937 -87.0881 77° East  Level FlightAware Approximate
Sun 10:35:49 PM 42.0658 -87.2842 75° East 287 330 14,200  Level Chicago Center
Sun 10:36:51 PM 42.0908 -87.1697 74° East 316 364 15,300 1,220 Climbing Chicago Center
Sun 10:37:52 PM 42.1128 -87.0506 76° East 329 379 16,700 1,279 Climbing Chicago Center
Sun 10:38:53 PM 42.1169 -86.9256 87° East 336 387 17,900 1,082 Climbing Chicago Center
Sun 10:39:54 PM 42.1211 -86.7975 87° East 342 394 18,900 1,082 Climbing Chicago Center
Sun 10:40:55 PM 42.1272 -86.6436 87° East 358 412 20,100 1,131 Climbing Chicago Center
Sun 10:41:56 PM 42.1317 -86.5050 87° East 369 425 21,200 1,033 Climbing Chicago Center
Sun 10:42:57 PM 42.1364 -86.3644 87° East 376 433 22,200 885 Climbing Chicago Center
Sun 10:43:58 PM 42.1406 -86.2214 88° East 382 440 23,000 393 Climbing Chicago Center
Sun 10:44:59 PM 42.1431 -86.0722 89° East 396 456 23,000  Level Chicago Center
Sun 10:46:00 PM 42.1386 -85.9294 92° East 410 472 23,000  Level Chicago Center
Sun 10:47:01 PM 42.1344 -85.7756 92° East 414 476 23,000  Level Chicago Center
Sun 10:48:03 PM 42.1286 -85.5889 92° East 417 480 23,000  Level Chicago Center
Sun 10:49:04 PM 42.1247 -85.4317 92° East 421 484 23,000  Level Chicago Center
Sun 10:50:05 PM 42.1206 -85.2739 92° East 423 487 23,000  Level Chicago Center
Sun 10:51:06 PM 42.1150 -85.1153 93° East 427 491 23,000  Level Chicago Center
Sun 10:52:07 PM 42.1100 -84.9575 92° East 423 487 23,000  Level Chicago Center
Sun 10:53:12 PM 42.0875 -84.7806 100° East 419 482 23,000  Level Cleveland Center
Sun 10:54:12 PM 42.0556 -84.6272 106° East 413 475 23,000  Level Cleveland Center
Sun 10:55:12 PM 42.0211 -84.4769 107° East 418 481 23,000  Level Cleveland Center
Sun 10:56:12 PM 41.9864 -84.3239 107° East 423 487 23,000  Level Cleveland Center
Sun 10:57:12 PM 41.9533 -84.1881 108° East 423 487 23,000  Level Cleveland Center
Sun 10:58:12 PM 41.9183 -84.0381 107° East 423 487 23,000  Level Cleveland Center
Sun 10:59:12 PM 41.8872 -83.8886 106° East 423 487 23,000  Level Cleveland Center
Sun 11:00:12 PM 41.8519 -83.7389 108° East 423 487 23,000  Level Cleveland Center
Sun 11:01:12 PM 41.8183 -83.5897 107° East 423 487 23,000 -150 Level Cleveland Center
Sun 11:02:12 PM 41.7828 -83.4375 107° East 423 487 22,700 -650 Descending Cleveland Center
Sun 11:03:12 PM 41.7508 -83.2914 106° East 423 487 21,700 -1,000 Descending Cleveland Center
Sun 11:04:12 PM 41.7167 -83.1481 108° East 418 481 20,700 -1,300 Descending Cleveland Center
Sun 11:05:12 PM 41.6822 -83.0019 107° East 413 475 19,100 -1,948 Descending Cleveland Center
Sun 11:05:29 PM 41.6667 -82.9486 111° Southeast 396 456 18,200 -1,900 Descending Cleveland Center
Sun 11:06:12 PM 41.6494 -82.8647 105° East 401 461 17,200 -1,967 Descending Cleveland Center
Sun 11:06:30 PM 41.6361 -82.8114 108° East 382 440 16,200 -2,400 Descending Cleveland Center
Sun 11:07:12 PM 41.6106 -82.7217 111° Southeast 384 442 14,800 -2,060 Descending Cleveland Center
Sun 11:07:37 PM 41.5928 -82.6711 115° Southeast 367 422 13,900 -2,400 Descending Cleveland Center
Sun 11:08:12 PM 41.5669 -82.6008 116° Southeast 370 426 12,400 -2,500 Descending Cleveland Center
Sun 11:08:37 PM 41.5469 -82.5503 118° Southeast 360 414 11,400 -1,700 Descending Cleveland Center
Sun 11:09:12 PM 41.5231 -82.4831 115° Southeast 355 409 10,700 -1,180 Descending Cleveland Center
Sun 11:09:38 PM 41.5092 -82.4436 115° Southeast 307 353 10,200 -1,300 Descending Cleveland Center
Sun 11:10:12 PM 41.4892 -82.3878 116° Southeast 310 357 9,400 -1,500 Descending Cleveland Center
Sun 11:10:38 PM 41.4731 -82.3511 120° Southeast 265 305 8,700 -1,500 Descending Cleveland Center
Sun 11:11:12 PM 41.4572 -82.3064 115° Southeast 283 326 7,900 -1,672 Descending Cleveland Center
Sun 11:11:39 PM 41.4431 -82.2644 114° Southeast 264 304 7,000 -1,600 Descending Cleveland Center
Sun 11:12:12 PM 41.4269 -82.2225 117° Southeast 263 303 6,300 -1,770 Descending Cleveland Center
Sun 11:12:40 PM 41.4069 -82.1750 119° Southeast 245 282 5,200 -1,700 Descending Cleveland Center
Sun 11:13:12 PM 41.3947 -82.1414 116° Southeast 253 291 4,600 -1,200 Descending Cleveland Center
Sun 11:13:40 PM 41.3786 -82.1025 119° Southeast 229 264 4,000 -900 Descending Cleveland Center
Sun 11:14:12 PM 41.3667 -82.0717 117° Southeast 232 267 3,700 -985 Descending Cleveland Center
Sun 11:14:47 PM 41.3483 -82.0353 124° Southeast 184 212 2,900 -1,000 Descending Cleveland Center
Sun 11:15:12 PM 41.3464 -82.0103 96° East 194 223 2,700 -500 Descending Cleveland Center
Sun 11:15:47 PM 41.3489 -81.9772 84° East 153 176 2,400 -533 Descending Cleveland Center
Sun 11:16:42 PM 41.3619 -81.9386 66° East 110 127 1,900 -569 Descending Cleveland Center
Sun 11:17:43 PM 41.3811 -81.9003 56° Northeast 129 148 1,300 -590 Descending Cleveland Center

Login

Don't have an account? Register now (free) for customized features, flight alerts, and more!